Terminal Aerodrome Forecast
Issued by NWS

Home | Current Version | Previous Version | Text Only | Print | Product List | Glossary On
Versions: 1 2 3 4 5 6 7 8 9 10 11 12 13 14 15 16 17 18
000
FTUS43 KAPX 260535
TAFAPN
TAF
KAPN 260535Z 2606/2706 20006KT P6SM FEW120 BKN250 WS020/22030KT
     FM261400 21008KT P6SM -SHRA OVC110
     FM261800 21009KT P6SM VCSH OVC090
     FM270000 22007KT P6SM -SHRA OVC060
     FM270200 25005KT P6SM -SHRA BKN040=

USA.gov is the U.S. government's official web portal to all federal, state and local government web resources and services.